Time;durP1;ratioP1;P1;durP2;ratioP2;P2;SDS_P1;SDS_P2;PMS_P1;PMS_P2;Temp;Humidity;BMP_temperature;BMP_pressure;BME280_temperature;BME280_humidity;BME280_pressure;Samples;Min_cycle;Max_cycle;Signal;HPM_P1;HPM_P2
2022/06/03 00:01:00;;;;;;;0.77;0.40;;;;;;;21.39;100.00;95519.31;5073212;28;20461;-54
2022/06/03 00:03:48;;;;;;;1.07;1.00;;;;;;;21.40;100.00;95518.16;5073884;28;20460;-54
2022/06/03 00:06:40;;;;;;;0.40;0.40;;;;;;;21.64;99.49;95535.53;5073475;28;20472;-54
2022/06/03 00:09:42;;;;;;;0.50;0.40;;;;;;;21.67;100.00;95535.69;5073431;28;20430;-54
2022/06/03 00:12:39;;;;;;;0.40;0.20;;;;;;;21.76;99.81;95532.88;5073134;28;20476;-54
2022/06/03 00:15:19;;;;;;;0.50;0.37;;;;;;;21.79;99.12;95524.91;5073759;28;20441;-54
2022/06/03 00:18:00;;;;;;;0.60;0.40;;;;;;;21.71;99.29;95523.09;5073265;28;20425;-54
2022/06/03 00:20:42;;;;;;;0.50;0.30;;;;;;;21.65;99.46;95521.75;5073375;28;20417;-54
2022/06/03 00:23:51;;;;;;;1.00;0.63;;;;;;;21.52;100.00;95534.41;5073408;28;20484;-54
2022/06/03 00:26:35;;;;;;;0.40;0.30;;;;;;;21.43;100.00;95535.59;5073189;28;20437;-54
2022/06/03 00:29:21;;;;;;;0.50;0.30;;;;;;;21.31;100.00;95506.69;5073067;28;20492;-54
2022/06/03 00:32:11;;;;;;;0.40;0.20;;;;;;;21.46;100.00;95530.34;5072860;28;21028;-54
2022/06/03 00:35:08;;;;;;;0.40;0.30;;;;;;;21.48;100.00;95525.38;5073288;28;20455;-54
2022/06/03 00:37:44;;;;;;;0.63;0.63;;;;;;;20.97;100.00;95527.75;5072902;28;20441;-54
2022/06/03 00:40:33;;;;;;;0.73;0.73;;;;;;;20.94;100.00;95533.78;5073173;28;20520;-54
2022/06/03 00:43:27;;;;;;;0.43;0.27;;;;;;;20.88;100.00;95511.63;5072755;28;20476;-54
2022/06/03 00:46:21;;;;;;;0.50;0.30;;;;;;;21.00;100.00;95517.09;5072718;28;20430;-55
2022/06/03 00:49:23;;;;;;;0.50;0.30;;;;;;;21.14;100.00;95523.03;5072704;28;20434;-55
2022/06/03 00:52:29;;;;;;;0.43;0.27;;;;;;;20.90;100.00;95494.03;5072418;28;20567;-55
2022/06/03 00:55:26;;;;;;;0.40;0.30;;;;;;;21.30;100.00;95534.00;5073039;28;20483;-55
2022/06/03 00:58:12;;;;;;;0.60;0.60;;;;;;;20.87;100.00;95451.56;5072616;28;20468;-55
2022/06/03 01:00:55;;;;;;;0.40;0.20;;;;;;;21.32;100.00;95508.28;5072773;28;20512;-55
2022/06/03 01:03:39;;;;;;;0.50;0.30;;;;;;;21.25;100.00;95499.91;5072466;28;20421;-55
2022/06/03 01:06:22;;;;;;;2.30;0.30;;;;;;;20.80;100.00;95461.31;5072389;28;20461;-55
2022/06/03 01:09:14;;;;;;;0.50;0.47;;;;;;;20.71;100.00;95488.34;5072681;28;20796;-55
2022/06/03 01:12:24;;;;;;;0.40;0.30;;;;;;;20.95;100.00;95498.41;5072363;28;20465;-55
2022/06/03 01:15:09;;;;;;;0.40;0.20;;;;;;;21.11;100.00;95514.81;5052281;28;20966;-55
2022/06/03 01:17:51;;;;;;;0.50;0.30;;;;;;;21.11;100.00;95509.41;5072478;28;20512;-55
2022/06/03 01:20:31;;;;;;;0.40;0.20;;;;;;;21.17;100.00;95513.50;5072323;28;20514;-55
2022/06/03 01:23:29;;;;;;;0.40;0.30;;;;;;;21.07;100.00;95509.31;5071963;28;20469;-55
2022/06/03 01:26:15;;;;;;;0.50;0.30;;;;;;;20.66;100.00;95458.09;5072020;28;20483;-55
2022/06/03 01:29:20;;;;;;;0.40;0.30;;;;;;;20.53;100.00;95496.84;5071575;28;20556;-55
2022/06/03 01:32:24;;;;;;;2.20;1.03;;;;;;;19.58;100.00;95501.91;5072076;28;20624;-55
2022/06/03 01:35:07;;;;;;;25.37;1.60;;;;;;;19.37;100.00;95492.94;5071866;28;20437;-55
2022/06/03 01:37:47;;;;;;;0.50;0.40;;;;;;;19.66;100.00;95509.13;5071965;28;20444;-55
2022/06/03 01:40:34;;;;;;;2.00;1.57;;;;;;;19.81;100.00;95510.53;5072002;28;20464;-55
2022/06/03 01:43:40;;;;;;;0.43;0.37;;;;;;;20.32;100.00;95512.19;5071631;28;20473;-55
2022/06/03 01:46:22;;;;;;;0.50;0.40;;;;;;;20.55;100.00;95502.69;5071168;28;20961;-55
2022/06/03 01:49:21;;;;;;;0.40;0.27;;;;;;;20.53;100.00;95491.47;5071694;28;20447;-54
2022/06/03 01:52:23;;;;;;;1.57;0.57;;;;;;;20.64;100.00;95503.44;5071230;28;20630;-54
2022/06/03 01:55:24;;;;;;;0.73;0.40;;;;;;;20.79;100.00;95498.25;5071464;28;20529;-54
2022/06/03 01:58:06;;;;;;;1.33;0.30;;;;;;;21.00;100.00;95509.00;5071238;28;20465;-55
2022/06/03 02:00:37;;;;;;;0.93;0.40;;;;;;;20.99;100.00;95509.34;5071312;28;20433;-54
2022/06/03 02:03:43;;;;;;;0.50;0.40;;;;;;;20.74;100.00;95428.41;5071186;28;20436;-55
2022/06/03 02:06:56;;;;;;;0.40;0.30;;;;;;;21.02;100.00;95487.13;5040208;28;20464;-55
2022/06/03 02:10:01;;;;;;;0.67;0.50;;;;;;;20.90;100.00;95502.09;5071339;28;20532;-55
2022/06/03 02:13:03;;;;;;;0.60;0.40;;;;;;;20.58;100.00;95502.03;5071037;28;20515;-55
2022/06/03 02:16:02;;;;;;;0.60;0.33;;;;;;;20.22;100.00;95505.25;5071114;28;20965;-55
2022/06/03 02:19:10;;;;;;;0.53;0.40;;;;;;;20.01;100.00;95497.13;5058121;28;20437;-55
2022/06/03 02:22:16;;;;;;;0.53;0.53;;;;;;;20.10;100.00;95484.41;5070937;28;20870;-55
2022/06/03 02:25:24;;;;;;;0.40;0.30;;;;;;;20.62;100.00;95495.66;5064402;28;20520;-55
2022/06/03 02:28:17;;;;;;;0.50;0.50;;;;;;;20.88;100.00;95492.78;5068313;28;21042;-55
2022/06/03 02:31:18;;;;;;;0.50;0.30;;;;;;;20.48;100.00;95470.91;5055244;28;20561;-55
2022/06/03 02:34:20;;;;;;;0.83;0.50;;;;;;;20.33;100.00;95476.88;5050621;28;20475;-55
2022/06/03 02:37:10;;;;;;;0.57;0.50;;;;;;;20.48;100.00;95489.75;5054915;28;20520;-55
2022/06/03 02:40:14;;;;;;;0.50;0.30;;;;;;;20.45;100.00;95487.72;5054749;28;20846;-55
2022/06/03 02:43:17;;;;;;;0.67;0.60;;;;;;;20.14;100.00;95453.03;5054649;28;20444;-55
2022/06/03 02:46:23;;;;;;;0.50;0.50;;;;;;;20.66;100.00;95498.50;5032026;28;20489;-55
2022/06/03 02:49:18;;;;;;;0.50;0.40;;;;;;;20.42;100.00;95485.66;5054824;28;20437;-55
2022/06/03 02:52:17;;;;;;;0.50;0.40;;;;;;;20.20;100.00;95505.59;5054523;28;20568;-55
2022/06/03 02:55:25;;;;;;;0.50;0.40;;;;;;;20.06;100.00;95520.38;5054567;28;20488;-55
2022/06/03 02:58:18;;;;;;;0.50;0.40;;;;;;;19.38;100.00;95516.03;5053942;28;20529;-56
2022/06/03 03:01:14;;;;;;;0.50;0.40;;;;;;;18.97;100.00;95436.69;5054359;28;20430;-55
2022/06/03 03:04:18;;;;;;;0.50;0.30;;;;;;;19.88;100.00;95516.97;5054303;28;20962;-55
2022/06/03 03:07:17;;;;;;;0.50;0.40;;;;;;;19.82;100.00;95514.78;5054263;28;20422;-56
2022/06/03 03:10:16;;;;;;;0.40;0.30;;;;;;;19.87;100.00;95525.34;5038646;28;20437;-56
2022/06/03 03:13:20;;;;;;;1.43;0.93;;;;;;;19.81;100.00;95518.59;5054227;28;20508;-56
2022/06/03 03:16:22;;;;;;;0.87;0.87;;;;;;;19.28;100.00;95482.16;5054329;28;20422;-56
2022/06/03 03:19:34;;;;;;;0.50;0.30;;;;;;;18.57;100.00;95357.47;5054437;28;20505;-56
2022/06/03 03:22:22;;;;;;;0.40;0.20;;;;;;;18.80;100.00;95355.38;5054272;28;20896;-56
2022/06/03 03:25:22;;;;;;;0.60;0.37;;;;;;;20.00;100.00;95533.22;5054260;28;20465;-56
2022/06/03 03:28:11;;;;;;;5.50;1.03;;;;;;;19.63;100.00;95458.69;5059254;28;20560;-56
2022/06/03 03:30:48;;;;;;;0.70;0.70;;;;;;;20.21;100.00;95533.28;5073918;28;20469;-56
2022/06/03 03:33:39;;;;;;;0.40;0.30;;;;;;;20.13;100.00;95508.00;5074043;28;20503;-56
2022/06/03 03:36:34;;;;;;;0.40;0.30;;;;;;;20.26;100.00;95541.97;5073475;28;20428;-55
2022/06/03 03:39:52;;;;;;;0.40;0.20;;;;;;;20.45;100.00;95544.25;5073806;28;20473;-56
2022/06/03 03:42:59;;;;;;;0.40;0.30;;;;;;;19.91;100.00;95510.94;5073818;28;20464;-55
2022/06/03 03:46:09;;;;;;;0.60;0.40;;;;;;;20.27;100.00;95556.22;5056593;28;20889;-56
2022/06/03 03:49:19;;;;;;;0.40;0.30;;;;;;;20.32;100.00;95528.34;5065536;28;20516;-56
2022/06/03 03:52:19;;;;;;;2.93;0.57;;;;;;;19.61;100.00;95434.81;5073414;28;20448;-56
2022/06/03 03:55:29;;;;;;;4.50;0.30;;;;;;;20.06;100.00;95499.63;5073642;28;20967;-55
2022/06/03 03:58:39;;;;;;;0.50;0.40;;;;;;;19.81;100.00;95535.50;5043291;28;20484;-55
2022/06/03 04:01:40;;;;;;;0.50;0.33;;;;;;;19.59;100.00;95546.47;5073077;28;20508;-55
2022/06/03 04:04:38;;;;;;;10.70;0.77;;;;;;;20.13;100.00;95574.47;5073512;28;20437;-56
2022/06/03 04:07:48;;;;;;;0.70;0.40;;;;;;;20.41;100.00;95570.28;5047998;28;20546;-55
2022/06/03 04:10:51;;;;;;;0.50;0.50;;;;;;;19.77;100.00;95501.50;5073279;28;20468;-55
2022/06/03 04:14:00;;;;;;;0.43;0.37;;;;;;;20.21;100.00;95555.59;5072822;28;20472;-55
2022/06/03 04:17:05;;;;;;;0.50;0.40;;;;;;;20.39;100.00;95577.84;5056189;28;20476;-55
2022/06/03 04:20:02;;;;;;;0.40;0.30;;;;;;;19.50;100.00;95447.03;5073625;28;20436;-55
2022/06/03 04:22:47;;;;;;;0.50;0.30;;;;;;;20.35;100.00;95579.63;5073345;28;20843;-55
2022/06/03 04:25:48;;;;;;;0.50;0.30;;;;;;;20.11;100.00;95501.38;5061631;28;20876;-55
2022/06/03 04:28:50;;;;;;;0.40;0.30;;;;;;;20.19;100.00;95500.50;5072832;28;20937;-55
2022/06/03 04:32:10;;;;;;;1.10;1.10;;;;;;;20.63;100.00;95602.31;5072914;28;20791;-55
2022/06/03 04:35:11;;;;;;;0.60;0.40;;;;;;;20.48;100.00;95599.38;5072163;28;20512;-55
2022/06/03 04:38:19;;;;;;;0.70;0.60;;;;;;;19.51;100.00;95606.44;5072946;28;20867;-55
2022/06/03 04:41:20;;;;;;;0.73;0.73;;;;;;;19.70;100.00;95598.81;5072724;28;20487;-55
2022/06/03 04:44:34;;;;;;;5.07;0.43;;;;;;;20.10;100.00;95549.00;5067404;28;20529;-55
2022/06/03 04:47:48;;;;;;;0.70;0.70;;;;;;;20.47;100.00;95605.84;5071970;28;20453;-55
2022/06/03 04:50:54;;;;;;;0.50;0.40;;;;;;;19.82;100.00;95616.97;5072380;28;20429;-55
2022/06/03 04:54:01;;;;;;;3.00;0.47;;;;;;;18.57;100.00;95443.38;5072204;28;20474;-55
2022/06/03 04:56:59;;;;;;;0.70;0.57;;;;;;;19.77;100.00;95523.81;5072110;28;21005;-54
2022/06/03 05:00:06;;;;;;;0.60;0.40;;;;;;;20.53;100.00;95553.41;5072457;28;20425;-54
2022/06/03 05:03:07;;;;;;;0.50;0.50;;;;;;;21.24;100.00;95616.19;5072702;28;20488;-54
2022/06/03 05:06:12;;;;;;;0.53;0.47;;;;;;;21.42;100.00;95613.03;5072532;28;20531;-54
2022/06/03 05:09:19;;;;;;;2.00;0.50;;;;;;;21.59;100.00;95592.41;5072674;28;20503;-53
2022/06/03 05:12:29;;;;;;;0.70;0.47;;;;;;;21.58;100.00;95609.72;5072381;28;20528;-53
2022/06/03 05:15:32;;;;;;;0.40;0.30;;;;;;;21.94;100.00;95610.66;5072118;28;20471;-53
2022/06/03 05:18:29;;;;;;;0.80;0.80;;;;;;;22.03;100.00;95551.19;5072318;28;20421;-53
2022/06/03 05:21:43;;;;;;;0.40;0.30;;;;;;;22.58;100.00;95602.75;5072361;28;20441;-53
2022/06/03 05:24:50;;;;;;;0.40;0.30;;;;;;;22.30;100.00;95593.72;5036004;28;20499;-53
2022/06/03 05:28:10;;;;;;;1.53;1.43;;;;;;;22.76;100.00;95608.72;5062914;28;20536;-53
2022/06/03 05:31:16;;;;;;;0.50;0.40;;;;;;;22.65;100.00;95608.41;5071985;28;20437;-54
2022/06/03 05:34:12;;;;;;;6.60;0.70;;;;;;;22.35;100.00;95544.91;5070325;28;20572;-54
2022/06/03 05:37:15;;;;;;;0.87;0.87;;;;;;;22.37;100.00;95612.84;5072015;28;20417;-53
2022/06/03 05:40:13;;;;;;;0.70;0.70;;;;;;;21.85;100.00;95604.56;5072105;28;20440;-53
2022/06/03 05:43:22;;;;;;;0.40;0.30;;;;;;;22.37;100.00;95585.84;5071670;28;20465;-52
2022/06/03 05:46:11;;;;;;;0.60;0.43;;;;;;;22.46;100.00;95605.44;5071803;28;20483;-52
2022/06/03 05:49:13;;;;;;;0.60;0.47;;;;;;;22.10;100.00;95584.59;5071741;28;20445;-52
2022/06/03 05:51:55;;;;;;;0.50;0.30;;;;;;;22.77;100.00;95605.69;5046704;28;20467;-52
2022/06/03 05:54:41;;;;;;;4.83;0.40;;;;;;;23.32;100.00;95604.25;5071844;28;20477;-52
2022/06/03 05:57:23;;;;;;;0.50;0.50;;;;;;;23.30;100.00;95604.56;5071637;28;20461;-52
2022/06/03 06:00:02;;;;;;;0.50;0.50;;;;;;;23.65;95.72;95591.28;5071759;28;20484;-52
2022/06/03 06:02:39;;;;;;;0.93;0.60;;;;;;;23.20;91.14;95460.91;5071639;28;20460;-52
2022/06/03 06:05:30;;;;;;;0.70;0.43;;;;;;;24.15;91.22;95592.63;5071998;28;20812;-52
2022/06/03 06:08:13;;;;;;;0.50;0.30;;;;;;;23.12;89.05;95386.19;5071831;28;20421;-52
2022/06/03 06:10:51;;;;;;;0.40;0.30;;;;;;;24.90;83.90;95585.94;5071545;28;20919;-52
2022/06/03 06:13:51;;;;;;;0.50;0.40;;;;;;;25.13;82.15;95595.00;5071502;28;20556;-52
2022/06/03 06:16:22;;;;;;;0.60;0.50;;;;;;;25.19;82.94;95590.06;5071361;28;20528;-52
2022/06/03 06:18:57;;;;;;;0.70;0.70;;;;;;;25.41;81.85;95583.16;5071373;28;20433;-52
2022/06/03 06:21:56;;;;;;;0.40;0.40;;;;;;;25.78;81.55;95589.72;5071376;28;20429;-52
2022/06/03 06:24:45;;;;;;;0.80;0.80;;;;;;;25.83;76.44;95582.09;5071487;28;20515;-52
2022/06/03 06:27:39;;;;;;;0.40;0.30;;;;;;;25.92;79.28;95500.38;5071119;28;20927;-68
2022/06/03 06:30:22;;;;;;;0.43;0.30;;;;;;;26.38;72.15;95512.03;5071405;28;20429;-59
2022/06/03 06:33:23;;;;;;;0.70;0.67;;;;;;;26.79;73.92;95557.34;5071309;28;20989;-62
2022/06/03 06:36:13;;;;;;;0.50;0.47;;;;;;;26.52;72.86;95489.69;5071517;28;20989;-62
2022/06/03 06:38:54;;;;;;;0.60;0.40;;;;;;;27.14;72.91;95527.13;5071170;28;20867;-58
2022/06/03 06:41:35;;;;;;;1.10;0.40;;;;;;;26.78;72.18;95410.84;5071145;28;20516;-59
2022/06/03 06:44:09;;;;;;;1.07;0.30;;;;;;;27.51;72.11;95506.22;5071071;28;20444;-58
2022/06/03 06:46:56;;;;;;;0.53;0.50;;;;;;;27.50;67.83;95512.03;5071205;28;20425;-58
2022/06/03 06:49:30;;;;;;;0.70;0.67;;;;;;;27.80;67.91;95545.44;5071417;28;20425;-57
2022/06/03 06:52:12;;;;;;;0.40;0.33;;;;;;;28.21;65.98;95514.31;5071040;28;20461;-57
2022/06/03 06:54:56;;;;;;;0.57;0.57;;;;;;;27.73;66.44;95481.94;5071035;28;20563;-58
2022/06/03 06:57:32;;;;;;;1.50;1.40;;;;;;;27.40;68.23;95488.97;5071077;28;20917;-54
2022/06/03 07:00:07;;;;;;;1.23;1.13;;;;;;;27.56;70.19;95495.00;5071233;28;20517;-54
2022/06/03 07:02:44;;;;;;;0.70;0.70;;;;;;;28.41;64.65;95539.41;5070978;28;20452;-54
2022/06/03 07:05:19;;;;;;;1.00;0.90;;;;;;;28.28;61.92;95491.78;5070937;28;20469;-55
2022/06/03 07:07:56;;;;;;;1.30;1.00;;;;;;;27.51;62.88;95405.47;5070990;28;20452;-55
2022/06/03 07:10:27;;;;;;;4.20;0.50;;;;;;;28.04;61.93;95474.06;5070878;28;20957;-54
2022/06/03 07:13:04;;;;;;;0.50;0.40;;;;;;;28.33;60.55;95432.22;5074643;28;20453;-54
2022/06/03 07:15:49;;;;;;;0.80;0.60;;;;;;;27.97;59.69;95332.31;5074494;28;20559;-54
2022/06/03 07:21:19;;;;;;;4.50;0.40;;;;;;;29.21;60.17;95515.78;5074422;28;20483;-54
2022/06/03 07:23:50;;;;;;;0.40;0.40;;;;;;;29.73;57.70;95517.16;5074306;28;20866;-54
2022/06/03 07:26:30;;;;;;;0.70;0.40;;;;;;;30.17;54.70;95441.84;5074329;28;20461;-54
2022/06/03 07:29:07;;;;;;;0.67;0.50;;;;;;;29.44;50.47;95363.34;5073730;28;20491;-54
2022/06/03 07:31:40;;;;;;;1.10;0.97;;;;;;;30.88;50.64;95512.13;5074061;28;20425;-53
2022/06/03 07:34:16;;;;;;;7.73;0.30;;;;;;;31.41;44.53;95507.28;5073921;28;20480;-53
2022/06/03 07:36:53;;;;;;;0.90;0.50;;;;;;;30.99;41.24;95507.47;5073917;28;20420;-53
2022/06/03 07:39:49;;;;;;;0.73;0.73;;;;;;;31.33;40.83;95501.06;5073992;28;20443;-53
2022/06/03 07:42:30;;;;;;;0.40;0.30;;;;;;;31.17;40.86;95385.72;5074159;28;20429;-54
2022/06/03 07:45:35;;;;;;;0.40;0.30;;;;;;;32.41;39.98;95502.81;5073692;28;20460;-54
2022/06/03 07:48:14;;;;;;;2.40;2.20;;;;;;;32.50;38.16;95483.91;5074079;28;20474;-54
2022/06/03 07:51:00;;;;;;;0.47;0.30;;;;;;;32.47;34.80;95490.19;5056753;28;20436;-54
2022/06/03 07:53:56;;;;;;;0.40;0.37;;;;;;;32.56;32.54;95416.44;5072803;28;20475;-54
2022/06/03 07:56:30;;;;;;;0.50;0.50;;;;;;;33.08;35.02;95489.25;5074083;28;20460;-54
2022/06/03 07:59:00;;;;;;;1.17;0.47;;;;;;;33.22;38.50;95513.00;5073611;28;20528;-54
2022/06/03 08:01:42;;;;;;;0.60;0.60;;;;;;;32.22;42.13;95430.06;5073679;28;20465;-54
2022/06/03 08:04:30;;;;;;;0.70;0.50;;;;;;;32.82;41.29;95442.44;5073900;28;20511;-54
2022/06/03 08:12:40;;;;;;;0.50;0.50;;;;;;;33.88;33.97;95504.38;5073451;28;20425;-54
2022/06/03 08:15:33;;;;;;;0.60;0.43;;;;;;;33.85;33.67;95470.97;5073664;28;20516;-54
2022/06/03 08:18:08;;;;;;;1.00;0.87;;;;;;;33.76;33.71;95505.69;5044912;28;20437;-54
2022/06/03 08:20:51;;;;;;;0.70;0.40;;;;;;;34.51;31.51;95462.09;5073543;28;20468;-54
2022/06/03 08:23:23;;;;;;;0.90;0.73;;;;;;;35.08;30.98;95492.19;5072928;28;20472;-54
2022/06/03 08:25:58;;;;;;;0.40;0.30;;;;;;;34.46;30.66;95485.38;5073127;28;20437;-55
2022/06/03 08:28:33;;;;;;;0.40;0.40;;;;;;;33.92;33.31;95481.13;5072897;28;20567;-54
2022/06/03 08:31:05;;;;;;;0.40;0.30;;;;;;;34.70;30.19;95499.94;5072462;28;20456;-54
2022/06/03 08:34:00;;;;;;;0.50;0.30;;;;;;;34.10;31.83;95368.88;5073224;28;20425;-54
2022/06/03 08:36:59;;;;;;;0.90;0.70;;;;;;;35.04;29.00;95489.50;5072558;28;20472;-54
2022/06/03 08:39:41;;;;;;;0.53;0.30;;;;;;;35.04;28.06;95412.34;5072791;28;20812;-54
2022/06/03 08:42:33;;;;;;;0.40;0.30;;;;;;;35.31;28.89;95452.75;5072821;28;20225;-54
2022/06/03 08:45:39;;;;;;;0.50;0.40;;;;;;;33.64;28.84;95393.53;5072544;28;20226;-54
2022/06/03 08:48:17;;;;;;;1.53;0.40;;;;;;;34.65;29.49;95459.13;5061629;28;20866;-54
2022/06/03 08:50:57;;;;;;;0.30;0.30;;;;;;;35.38;27.06;95480.97;5072383;28;20199;-54
2022/06/03 08:53:33;;;;;;;0.60;0.30;;;;;;;35.24;28.76;95483.22;5072479;28;20178;-54
2022/06/03 08:56:08;;;;;;;0.40;0.30;;;;;;;35.70;29.61;95477.53;5072524;28;20707;-54
2022/06/03 08:58:46;;;;;;;0.40;0.30;;;;;;;35.25;27.91;95479.25;5072798;28;20603;-53
2022/06/03 09:01:24;;;;;;;0.40;0.30;;;;;;;34.88;28.39;95370.97;5072781;28;20269;-54
2022/06/03 09:03:59;;;;;;;0.50;0.40;;;;;;;35.39;27.60;95457.72;5072428;28;20274;-53
2022/06/03 09:06:44;;;;;;;0.40;0.30;;;;;;;35.05;26.28;95473.75;5072495;28;20186;-54
2022/06/03 09:09:24;;;;;;;0.30;0.30;;;;;;;35.58;26.88;95465.19;5072410;28;20219;-54
2022/06/03 09:12:03;;;;;;;0.57;0.40;;;;;;;34.86;26.83;95359.59;5072732;28;20270;-53
2022/06/03 09:14:33;;;;;;;0.30;0.20;;;;;;;35.50;26.89;95462.97;5072198;28;20297;-53
2022/06/03 09:17:08;;;;;;;1.77;0.33;;;;;;;35.15;27.66;95477.50;5072156;28;20186;-54
2022/06/03 09:19:41;;;;;;;0.40;0.37;;;;;;;34.92;27.43;95381.88;5071583;28;20192;-53
2022/06/03 09:22:16;;;;;;;1.40;0.37;;;;;;;35.91;26.97;95429.38;5072176;28;20242;-53
2022/06/03 09:24:45;;;;;;;0.33;0.30;;;;;;;36.17;26.10;95462.31;5072011;28;20226;-53
2022/06/03 09:27:17;;;;;;;0.32;0.30;;;;;;;36.08;25.67;95464.88;5071060;28;20222;-53
2022/06/03 09:29:52;;;;;;;0.65;0.65;;;;;;;36.17;25.91;95445.75;5051948;28;20193;-53
2022/06/03 09:32:22;;;;;;;0.60;0.40;;;;;;;36.30;25.75;95467.91;5052117;28;20226;-55
2022/06/03 09:34:56;;;;;;;0.32;0.30;;;;;;;35.39;24.54;95313.59;5051652;28;20304;-55
2022/06/03 09:37:30;;;;;;;10.48;0.40;;;;;;;36.13;24.79;95461.59;5052066;28;20184;-55
2022/06/03 09:40:01;;;;;;;0.50;0.40;;;;;;;37.12;24.92;95450.78;5052213;28;20191;-55
2022/06/03 09:42:34;;;;;;;1.20;0.52;;;;;;;36.49;24.23;95455.22;5051914;28;20627;-55
2022/06/03 09:45:06;;;;;;;0.30;0.30;;;;;;;36.43;24.28;95398.97;5051857;28;20326;-56
2022/06/03 09:47:36;;;;;;;0.40;0.38;;;;;;;36.30;24.13;95459.63;5052133;28;20634;-55
2022/06/03 09:50:07;;;;;;;0.40;0.40;;;;;;;36.70;24.00;95451.91;5051693;28;20243;-55
2022/06/03 09:52:35;;;;;;;0.30;0.20;;;;;;;36.66;24.37;95313.91;5051732;28;20188;-55
2022/06/03 09:55:25;;;;;;;0.30;0.20;;;;;;;37.79;23.69;95450.81;5051354;28;20255;-55
2022/06/03 09:57:57;;;;;;;2.05;0.50;;;;;;;37.57;23.56;95444.41;5051608;28;20195;-55
2022/06/03 10:00:30;;;;;;;0.40;0.40;;;;;;;37.44;24.12;95450.69;5051531;28;20239;-55
2022/06/03 10:02:59;;;;;;;0.77;0.73;;;;;;;37.73;23.58;95438.75;5051645;28;20203;-55
2022/06/03 10:05:28;;;;;;;0.50;0.40;;;;;;;37.64;23.22;95452.47;5051486;28;20195;-55
2022/06/03 10:08:00;;;;;;;0.70;0.70;;;;;;;37.16;23.06;95436.88;5051680;28;20657;-54
2022/06/03 10:13:18;;;;;;;1.20;0.50;;;;;;;37.86;22.94;95406.34;5051923;28;20187;-55
2022/06/03 10:15:53;;;;;;;0.40;0.40;;;;;;;37.38;22.47;95438.59;5051739;28;20207;-54
2022/06/03 10:18:29;;;;;;;0.40;0.40;;;;;;;36.47;24.42;95430.81;5051259;28;20182;-55
2022/06/03 10:21:28;;;;;;;0.85;0.38;;;;;;;36.97;24.85;95435.03;5051326;28;20675;-55
2022/06/03 10:23:58;;;;;;;0.30;0.20;;;;;;;37.56;24.23;95426.25;5051254;28;20261;-55
2022/06/03 10:26:39;;;;;;;0.68;0.43;;;;;;;37.81;24.34;95438.09;5051321;28;20256;-51
2022/06/03 10:29:10;;;;;;;0.30;0.30;;;;;;;37.72;24.02;95431.69;5066537;28;20242;-51
2022/06/03 10:31:50;;;;;;;0.43;0.30;;;;;;;38.45;23.20;95425.00;5071256;28;20187;-51
2022/06/03 10:34:26;;;;;;;0.30;0.30;;;;;;;38.40;22.10;95423.59;5071018;28;20684;-51
2022/06/03 10:36:57;;;;;;;0.93;0.50;;;;;;;38.34;22.14;95430.13;5071108;28;20301;-51
2022/06/03 10:39:27;;;;;;;0.35;0.30;;;;;;;37.65;22.85;95435.44;5070942;28;20273;-51
2022/06/03 10:41:58;;;;;;;0.50;0.50;;;;;;;37.32;21.61;95376.72;5071070;28;20664;-51
2022/06/03 10:44:33;;;;;;;0.30;0.30;;;;;;;37.19;21.40;95420.16;5071077;28;20188;-51
2022/06/03 10:47:04;;;;;;;0.30;0.30;;;;;;;37.82;21.41;95355.88;5074022;28;20218;-51
2022/06/03 10:49:37;;;;;;;1.02;0.30;;;;;;;38.67;21.12;95412.75;5075300;28;20197;-51
2022/06/03 11:03:25;;;;;;;1.38;0.40;;;;;;;37.89;21.22;95413.78;5075136;28;20271;-51
2022/06/03 11:05:54;;;;;;;0.40;0.40;;;;;;;38.61;20.15;95400.69;5074885;28;20253;-51
2022/06/03 11:08:23;;;;;;;0.40;0.30;;;;;;;38.00;20.19;95409.44;5074661;28;20218;-51
2022/06/03 11:10:55;;;;;;;0.38;0.38;;;;;;;37.69;21.21;95388.28;5074632;28;20227;-51
2022/06/03 11:13:29;;;;;;;0.50;0.50;;;;;;;38.16;21.29;95411.31;5074967;28;20270;-51
2022/06/03 11:16:14;;;;;;;0.30;0.30;;;;;;;38.11;21.22;95407.09;5074532;28;20214;-51
2022/06/03 11:18:44;;;;;;;0.25;0.22;;;;;;;39.12;20.04;95403.25;5074661;28;20187;-51
2022/06/03 11:21:22;;;;;;;0.30;0.20;;;;;;;39.13;20.38;95402.03;5074498;28;20183;-51
2022/06/03 11:23:53;;;;;;;0.40;0.32;;;;;;;38.02;21.94;95368.28;5073717;28;20623;-52
2022/06/03 11:26:22;;;;;;;1.30;0.40;;;;;;;37.02;21.10;95393.81;5074179;28;20239;-51
2022/06/03 11:28:56;;;;;;;0.52;0.52;;;;;;;37.32;22.06;95398.06;5073723;28;20234;-51
2022/06/03 11:31:29;;;;;;;16.00;0.63;;;;;;;37.77;20.64;95397.94;5074096;28;20223;-51
2022/06/03 11:34:04;;;;;;;0.40;0.30;;;;;;;38.15;21.47;95396.69;5074253;28;20215;-52
2022/06/03 11:36:36;;;;;;;0.40;0.40;;;;;;;38.38;20.92;95392.78;5074114;28;20289;-51
2022/06/03 11:39:09;;;;;;;0.40;0.40;;;;;;;38.05;20.96;95381.19;5074028;28;20191;-52
2022/06/03 11:41:44;;;;;;;0.40;0.30;;;;;;;37.23;21.10;95378.59;5073657;28;20274;-51
2022/06/03 11:44:18;;;;;;;0.30;0.30;;;;;;;37.28;21.76;95369.78;5073579;28;20301;-51
2022/06/03 11:46:54;;;;;;;2.15;0.40;;;;;;;36.99;21.91;95366.31;5073984;28;20188;-51
2022/06/03 11:49:24;;;;;;;0.38;0.32;;;;;;;37.21;22.16;95376.28;5073701;28;20191;-51
2022/06/03 11:51:53;;;;;;;0.40;0.40;;;;;;;37.91;21.91;95370.59;5073503;28;20238;-51
2022/06/03 11:54:26;;;;;;;0.40;0.32;;;;;;;36.65;21.37;95364.06;5073800;28;20231;-51
2022/06/03 11:56:55;;;;;;;0.30;0.30;;;;;;;37.03;21.76;95366.97;5073645;28;20265;-52
2022/06/03 11:59:32;;;;;;;0.30;0.30;;;;;;;36.61;21.17;95364.16;5074020;28;20266;-51
2022/06/03 12:02:10;;;;;;;0.68;0.68;;;;;;;36.33;21.16;95367.66;5073711;28;20230;-51
2022/06/03 12:04:48;;;;;;;0.30;0.30;;;;;;;37.94;20.27;95368.94;5073673;28;20231;-52
2022/06/03 12:07:34;;;;;;;0.30;0.30;;;;;;;37.38;20.81;95360.38;5073924;28;20654;-52
2022/06/03 12:10:11;;;;;;;0.40;0.30;;;;;;;37.17;21.22;95359.03;5073527;28;20231;-51
2022/06/03 12:15:45;;;;;;;0.30;0.30;;;;;;;35.80;23.17;95363.44;5073328;28;20192;-51
2022/06/03 12:18:43;;;;;;;0.40;0.30;;;;;;;35.16;22.41;95357.81;5073368;28;20249;-51
2022/06/03 12:21:14;;;;;;;0.30;0.20;;;;;;;35.32;21.36;95352.34;5073468;28;20280;-51
2022/06/03 12:23:53;;;;;;;0.40;0.40;;;;;;;35.11;23.00;95355.56;5073245;28;20189;-51
2022/06/03 12:26:26;;;;;;;0.40;0.40;;;;;;;34.78;23.50;95362.91;5073188;28;20192;-51
2022/06/03 12:28:59;;;;;;;0.40;0.30;;;;;;;35.08;23.17;95357.19;5073053;28;20296;-52
2022/06/03 12:31:37;;;;;;;2.90;1.23;;;;;;;36.33;22.67;95351.84;5073270;28;20224;-51
2022/06/03 12:34:22;;;;;;;0.30;0.20;;;;;;;36.13;21.62;95353.22;5072908;28;20243;-52
2022/06/03 12:36:57;;;;;;;0.40;0.30;;;;;;;36.03;21.57;95360.53;5073146;28;20207;-52
2022/06/03 12:39:28;;;;;;;0.37;0.30;;;;;;;35.61;23.33;95378.09;5072690;28;20625;-52
2022/06/03 12:42:05;;;;;;;0.40;0.30;;;;;;;34.71;24.48;95365.81;5073058;28;20276;-52
2022/06/03 12:44:40;;;;;;;0.73;0.67;;;;;;;33.95;26.88;95369.50;5072874;28;20244;-52
2022/06/03 12:47:42;;;;;;;0.40;0.40;;;;;;;33.73;28.28;95380.81;5073184;28;20272;-52
2022/06/03 12:50:43;;;;;;;0.33;0.30;;;;;;;33.07;29.48;95388.00;5072595;28;20718;-52
2022/06/03 12:53:33;;;;;;;4.73;0.30;;;;;;;32.55;30.66;95387.44;5073052;28;20437;-52
2022/06/03 12:56:08;;;;;;;5.40;0.90;;;;;;;32.41;31.19;95377.34;5072529;28;20519;-52
2022/06/03 12:58:50;;;;;;;0.40;0.30;;;;;;;31.66;34.86;95381.13;5073129;28;20523;-53
2022/06/03 13:01:35;;;;;;;0.87;0.83;;;;;;;31.05;36.27;95382.66;5072645;28;20524;-53
2022/06/03 13:04:37;;;;;;;0.40;0.30;;;;;;;31.03;36.45;95385.78;5072292;28;20902;-53
2022/06/03 13:07:33;;;;;;;0.50;0.50;;;;;;;31.40;34.26;95382.44;5072271;28;20436;-53
2022/06/03 13:10:30;;;;;;;0.40;0.30;;;;;;;31.46;33.94;95382.84;5055854;28;20543;-53
2022/06/03 13:13:24;;;;;;;0.77;0.50;;;;;;;31.79;33.34;95385.75;5057708;28;20534;-53
2022/06/03 13:15:53;;;;;;;0.50;0.40;;;;;;;32.08;32.61;95383.53;5092614;28;20479;-53
2022/06/03 13:18:36;;;;;;;0.97;0.37;;;;;;;31.49;32.96;95332.72;5092441;28;20467;-53
2022/06/03 13:21:19;;;;;;;0.50;0.40;;;;;;;31.54;32.54;95321.34;5092283;28;20824;-53
2022/06/03 13:23:59;;;;;;;0.63;0.63;;;;;;;31.69;32.88;95388.56;5092706;28;20470;-52
2022/06/03 13:27:06;;;;;;;0.40;0.30;;;;;;;31.79;32.96;95385.75;5092288;28;20416;-52